オスロ の空港の天気 - METARとTAF

オスロ空港 ( ENGM / OSL ) - ノルウェー アーケシュフース県オスロ
飛行場実況気象(Metar)
観測時間10/19 20:20 CEST (10/19 18:20 UTC)
風向・風速南南東 2m/s
視程10km以上
天気現象
なし
気温5℃
湿度81%
気圧1019hPa
METARENGM 191820Z 16004KT CAVOK 05/02 Q1019 NOSIG
過去の天気等 Google飛行場航空写真 Wunderground天気予報

過去48時間のMETAR

飛行場予報(TAF)
発表時間: -
20日4時 CEST から 確率 40% で
視程500m
天気現象
全天を覆う雲 鉛直視程 30m
TAF ENGM 1918/2018 VRB05KT 9999 FEW040 BKN120
PROB40 2002/2008 0500 FG VV001